»·PEaware :: N83AM KSNA-KBUR

N83AM :: KSNA-KBUR

FLIGHT INFORMATION

Flight Status: Arrived
Operator: Privately registered:
United States
More flights under this callsign
Pilot: Andrew M. (18915)
Aircraft: CESSNA T210 TURBO CENTURION
(T210)
More flights by this aircraft type
Origin: KSNA John Wayne-Orange Co
United States
Destination: KBUR Bob Hope-Burbank
United States
More flights between these airports :: More routes between these airports
Route: +SLI V23 POPPR SMO125 SMO SMO311 SILEX
File this flight plan on PilotEdge
Remarks: none
Altitude:
(Current/Filed)
4,000ft
Speed:
(Current/Filed)
150kts
Departed: 22-May-18 03:40 PM
Arrived: 22-May-18 04:10 PM
Distance/Time
Traveled:
40nm/0:30
Distance/Time
To Go:
Arrived

Flight Plot

Page will automatically refresh every two minutes.


Map Options




Map Legend


Flown Route
Filed Route
Departure Airport
Arrival Airport
Navaid (VOR, NDB)
Fix

Horizontal Profiles

Position Reports

Time Latitude Longitude Heading Altitude Ground
Speed
22-May-18 15:20 33.670661 -117.867999 215 60ft 0kts
22-May-18 15:21 33.670661 -117.867999 215 60ft 0kts
22-May-18 15:22 33.670661 -117.867999 215 60ft 0kts
22-May-18 15:23 33.670661 -117.867999 215 60ft 0kts
22-May-18 15:24 33.670661 -117.867999 215 60ft 0kts
22-May-18 15:25 33.670661 -117.867999 215 60ft 0kts
22-May-18 15:26 33.670661 -117.867999 215 60ft 0kts
22-May-18 15:27 33.670661 -117.867999 215 60ft 0kts
22-May-18 15:28 33.670661 -117.867999 215 60ft 0kts
22-May-18 15:29 33.670661 -117.867999 215 60ft 0kts
22-May-18 15:30 33.670661 -117.867999 215 60ft 0kts
22-May-18 15:31 33.670661 -117.867999 215 60ft 0kts
22-May-18 15:32 33.670661 -117.867999 215 60ft 0kts
22-May-18 15:33 33.670661 -117.867999 215 60ft 0kts
22-May-18 15:34 33.670661 -117.867999 215 60ft 0kts
22-May-18 15:35 33.670661 -117.867999 215 60ft 0kts
22-May-18 15:36 33.673468 -117.866938 18 60ft 18kts
22-May-18 15:37 33.677827 -117.864730 26 60ft 36kts
22-May-18 15:38 33.679997 -117.863658 311 60ft 0kts
22-May-18 15:39 33.679997 -117.863658 311 60ft 0kts
22-May-18 15:40 33.672128 -117.869876 220 396ft 87kts
22-May-18 15:41 33.664161 -117.898404 274 2326ft 109kts
22-May-18 15:42 33.682241 -117.926058 307 3850ft 123kts
22-May-18 15:43 33.698646 -117.972121 292 3884ft 155kts
22-May-18 15:44 33.718151 -118.017550 295 3994ft 155kts
22-May-18 15:45 33.738145 -118.061417 295 3992ft 156kts
22-May-18 15:46 33.755650 -118.099413 296 3992ft 156kts
22-May-18 15:47 33.776655 -118.144895 295 3994ft 155kts
22-May-18 15:48 33.797532 -118.190202 295 3997ft 155kts
22-May-18 15:49 33.818229 -118.235229 295 3998ft 152kts
22-May-18 15:50 33.841756 -118.286581 301 3997ft 147kts
22-May-18 15:51 33.872325 -118.318184 318 4001ft 144kts
22-May-18 15:52 33.898144 -118.344046 318 4000ft 144kts
22-May-18 15:53 33.929607 -118.375617 317 4000ft 152kts
22-May-18 15:54 33.962410 -118.408631 317 3996ft 155kts
22-May-18 15:55 33.994808 -118.442473 316 3994ft 156kts
22-May-18 15:56 34.025886 -118.478842 311 3994ft 156kts
22-May-18 15:57 34.055420 -118.516937 311 3996ft 155kts
22-May-18 15:58 34.084933 -118.554871 311 4028ft 157kts
22-May-18 15:59 34.114990 -118.593502 311 4022ft 161kts
22-May-18 16:00 34.145421 -118.632525 311 4015ft 151kts
22-May-18 16:01 34.174006 -118.664779 346 4005ft 146kts
22-May-18 16:02 34.200833 -118.634411 61 4008ft 135kts
22-May-18 16:03 34.204323 -118.592569 91 4013ft 128kts
22-May-18 16:04 34.202882 -118.548802 103 3885ft 127kts
22-May-18 16:05 34.200269 -118.509743 96 3611ft 101kts
22-May-18 16:06 34.199057 -118.476322 94 2803ft 100kts
22-May-18 16:07 34.198973 -118.443277 96 2111ft 97kts
22-May-18 16:08 34.198377 -118.409727 97 1505ft 95kts
22-May-18 16:09 34.198066 -118.379904 93 1001ft 79kts
22-May-18 16:10 34.197811 -118.360994 83 717ft 22kts
22-May-18 16:11 34.198513 -118.360397 355 717ft 0kts
22-May-18 16:12 34.198513 -118.360397 355 717ft 0kts
22-May-18 16:13 34.198579 -118.360402 355 717ft 6kts
22-May-18 16:14 34.199840 -118.359856 80 721ft 0kts
22-May-18 16:15 34.199840 -118.359856 80 721ft 0kts
22-May-18 16:16 34.199840 -118.359856 80 721ft 0kts
22-May-18 16:17 34.199840 -118.359856 80 721ft 0kts
22-May-18 16:18 34.199840 -118.359856 80 721ft 0kts
22-May-18 16:19 34.199840 -118.359856 80 721ft 0kts
22-May-18 16:20 34.199840 -118.359856 80 721ft 0kts
22-May-18 16:21 34.199840 -118.359856 80 721ft 0kts
22-May-18 16:22 34.199840 -118.359856 80 721ft 0kts
22-May-18 16:23 34.199840 -118.359856 80 721ft 0kts
22-May-18 16:24 34.199840 -118.359856 80 721ft 0kts

Navigation Log

Ident Type
Flight plan parsing failed, navigation log unavailable